sensor_id;sensor_type;location;lat;lon;timestamp;temperature;humidity
55121;DHT22;41019;48.512;9.036;2023-10-09T00:00:51;12.00;95.40
55121;DHT22;41019;48.512;9.036;2023-10-09T00:03:21;11.90;95.40
55121;DHT22;41019;48.512;9.036;2023-10-09T00:05:53;12.00;95.50
55121;DHT22;41019;48.512;9.036;2023-10-09T00:08:20;11.90;95.60
55121;DHT22;41019;48.512;9.036;2023-10-09T00:10:52;11.90;95.60
55121;DHT22;41019;48.512;9.036;2023-10-09T00:13:23;11.80;95.50
55121;DHT22;41019;48.512;9.036;2023-10-09T00:15:58;11.80;95.60
55121;DHT22;41019;48.512;9.036;2023-10-09T00:18:34;11.80;95.60
55121;DHT22;41019;48.512;9.036;2023-10-09T00:21:01;11.80;95.60
55121;DHT22;41019;48.512;9.036;2023-10-09T00:23:36;11.70;95.60
55121;DHT22;41019;48.512;9.036;2023-10-09T00:26:02;11.70;95.50
55121;DHT22;41019;48.512;9.036;2023-10-09T00:28:39;11.60;95.70
55121;DHT22;41019;48.512;9.036;2023-10-09T00:31:10;11.70;95.80
55121;DHT22;41019;48.512;9.036;2023-10-09T00:33:41;11.60;95.90
55121;DHT22;41019;48.512;9.036;2023-10-09T00:36:07;11.60;95.80
55121;DHT22;41019;48.512;9.036;2023-10-09T00:38:37;11.60;96.00
55121;DHT22;41019;48.512;9.036;2023-10-09T00:41:10;11.60;95.90
55121;DHT22;41019;48.512;9.036;2023-10-09T00:43:39;11.60;96.00
55121;DHT22;41019;48.512;9.036;2023-10-09T00:46:09;11.50;96.10
55121;DHT22;41019;48.512;9.036;2023-10-09T00:48:42;11.50;96.20
55121;DHT22;41019;48.512;9.036;2023-10-09T00:51:08;11.50;96.20
55121;DHT22;41019;48.512;9.036;2023-10-09T00:54:10;11.50;96.20
55121;DHT22;41019;48.512;9.036;2023-10-09T00:56:41;11.50;96.00
55121;DHT22;41019;48.512;9.036;2023-10-09T00:59:10;11.40;96.10
55121;DHT22;41019;48.512;9.036;2023-10-09T01:01:46;11.40;96.20
55121;DHT22;41019;48.512;9.036;2023-10-09T01:04:31;11.40;96.40
55121;DHT22;41019;48.512;9.036;2023-10-09T01:07:05;11.40;96.20
55121;DHT22;41019;48.512;9.036;2023-10-09T01:09:34;11.40;96.30
55121;DHT22;41019;48.512;9.036;2023-10-09T01:12:04;11.40;96.30
55121;DHT22;41019;48.512;9.036;2023-10-09T01:14:31;11.30;96.30
55121;DHT22;41019;48.512;9.036;2023-10-09T01:17:04;11.30;96.30
55121;DHT22;41019;48.512;9.036;2023-10-09T01:19:34;11.30;96.30
55121;DHT22;41019;48.512;9.036;2023-10-09T01:22:00;11.30;96.40
55121;DHT22;41019;48.512;9.036;2023-10-09T01:24:42;11.30;96.50
55121;DHT22;41019;48.512;9.036;2023-10-09T01:27:10;11.30;96.50
55121;DHT22;41019;48.512;9.036;2023-10-09T01:29:44;11.30;96.60
55121;DHT22;41019;48.512;9.036;2023-10-09T01:32:11;11.20;96.80
55121;DHT22;41019;48.512;9.036;2023-10-09T01:34:45;11.20;96.50
55121;DHT22;41019;48.512;9.036;2023-10-09T01:37:17;11.20;96.60
55121;DHT22;41019;48.512;9.036;2023-10-09T01:39:49;11.20;96.50
55121;DHT22;41019;48.512;9.036;2023-10-09T01:42:18;11.20;96.60
55121;DHT22;41019;48.512;9.036;2023-10-09T01:44:50;11.20;96.40
55121;DHT22;41019;48.512;9.036;2023-10-09T01:47:18;11.10;96.30
55121;DHT22;41019;48.512;9.036;2023-10-09T01:49:44;11.10;96.30
55121;DHT22;41019;48.512;9.036;2023-10-09T01:52:16;11.10;96.40
55121;DHT22;41019;48.512;9.036;2023-10-09T01:54:46;11.10;96.40
55121;DHT22;41019;48.512;9.036;2023-10-09T01:57:13;11.10;96.70
55121;DHT22;41019;48.512;9.036;2023-10-09T01:59:44;11.10;96.80
55121;DHT22;41019;48.512;9.036;2023-10-09T02:02:12;11.10;96.80
55121;DHT22;41019;48.512;9.036;2023-10-09T02:04:56;11.10;96.90
55121;DHT22;41019;48.512;9.036;2023-10-09T02:07:33;11.10;97.00
55121;DHT22;41019;48.512;9.036;2023-10-09T02:10:18;11.10;97.00
55121;DHT22;41019;48.512;9.036;2023-10-09T02:13:00;11.20;97.00
55121;DHT22;41019;48.512;9.036;2023-10-09T02:15:33;11.20;97.00
55121;DHT22;41019;48.512;9.036;2023-10-09T02:18:12;11.20;97.10
55121;DHT22;41019;48.512;9.036;2023-10-09T02:20:48;11.20;97.10
55121;DHT22;41019;48.512;9.036;2023-10-09T02:23:27;11.20;97.00
55121;DHT22;41019;48.512;9.036;2023-10-09T02:26:08;11.20;97.00
55121;DHT22;41019;48.512;9.036;2023-10-09T02:29:04;11.20;97.10
55121;DHT22;41019;48.512;9.036;2023-10-09T02:31:46;11.20;97.10
55121;DHT22;41019;48.512;9.036;2023-10-09T02:34:18;11.20;97.20
55121;DHT22;41019;48.512;9.036;2023-10-09T02:36:53;11.20;97.20
55121;DHT22;41019;48.512;9.036;2023-10-09T02:39:32;11.20;97.20
55121;DHT22;41019;48.512;9.036;2023-10-09T02:42:09;11.20;97.30
55121;DHT22;41019;48.512;9.036;2023-10-09T02:44:37;11.20;97.20
55121;DHT22;41019;48.512;9.036;2023-10-09T02:47:15;11.30;97.30
55121;DHT22;41019;48.512;9.036;2023-10-09T02:49:55;11.20;97.10
55121;DHT22;41019;48.512;9.036;2023-10-09T02:52:32;11.30;97.30
55121;DHT22;41019;48.512;9.036;2023-10-09T02:55:06;11.30;97.20
55121;DHT22;41019;48.512;9.036;2023-10-09T02:57:56;11.30;97.30
55121;DHT22;41019;48.512;9.036;2023-10-09T03:00:40;11.30;97.30
55121;DHT22;41019;48.512;9.036;2023-10-09T03:03:10;11.30;97.40
55121;DHT22;41019;48.512;9.036;2023-10-09T03:05:35;11.30;97.50
55121;DHT22;41019;48.512;9.036;2023-10-09T03:08:07;11.30;97.50
55121;DHT22;41019;48.512;9.036;2023-10-09T03:10:38;11.30;97.40
55121;DHT22;41019;48.512;9.036;2023-10-09T03:13:04;11.30;97.40
55121;DHT22;41019;48.512;9.036;2023-10-09T03:15:31;11.30;97.50
55121;DHT22;41019;48.512;9.036;2023-10-09T03:18:04;11.30;97.50
55121;DHT22;41019;48.512;9.036;2023-10-09T03:20:32;11.30;97.60
55121;DHT22;41019;48.512;9.036;2023-10-09T03:22:58;11.30;97.70
55121;DHT22;41019;48.512;9.036;2023-10-09T03:25:27;11.30;97.50
55121;DHT22;41019;48.512;9.036;2023-10-09T03:27:54;11.30;97.60
55121;DHT22;41019;48.512;9.036;2023-10-09T03:30:21;11.30;97.50
55121;DHT22;41019;48.512;9.036;2023-10-09T03:32:52;11.40;97.50
55121;DHT22;41019;48.512;9.036;2023-10-09T03:35:22;11.40;97.60
55121;DHT22;41019;48.512;9.036;2023-10-09T03:37:58;11.40;97.70
55121;DHT22;41019;48.512;9.036;2023-10-09T03:40:35;11.40;97.60
55121;DHT22;41019;48.512;9.036;2023-10-09T03:43:04;11.40;97.80
55121;DHT22;41019;48.512;9.036;2023-10-09T03:45:30;11.40;97.60
55121;DHT22;41019;48.512;9.036;2023-10-09T03:48:00;11.40;97.60
55121;DHT22;41019;48.512;9.036;2023-10-09T03:50:37;11.40;97.60
55121;DHT22;41019;48.512;9.036;2023-10-09T03:53:07;11.40;97.60
55121;DHT22;41019;48.512;9.036;2023-10-09T03:55:34;11.40;97.60
55121;DHT22;41019;48.512;9.036;2023-10-09T03:58:00;11.40;97.50
55121;DHT22;41019;48.512;9.036;2023-10-09T04:00:29;11.40;97.50
55121;DHT22;41019;48.512;9.036;2023-10-09T04:02:56;11.40;97.80
55121;DHT22;41019;48.512;9.036;2023-10-09T04:05:25;11.40;97.60
55121;DHT22;41019;48.512;9.036;2023-10-09T04:07:51;11.40;97.50
55121;DHT22;41019;48.512;9.036;2023-10-09T04:10:20;11.40;97.60
55121;DHT22;41019;48.512;9.036;2023-10-09T04:12:59;11.40;97.50
55121;DHT22;41019;48.512;9.036;2023-10-09T04:15:26;11.40;97.50
55121;DHT22;41019;48.512;9.036;2023-10-09T04:17:56;11.40;97.40
55121;DHT22;41019;48.512;9.036;2023-10-09T04:20:22;11.40;97.40
55121;DHT22;41019;48.512;9.036;2023-10-09T04:22:48;11.50;97.40
55121;DHT22;41019;48.512;9.036;2023-10-09T04:27:54;11.40;97.30
55121;DHT22;41019;48.512;9.036;2023-10-09T04:30:29;11.40;97.20
55121;DHT22;41019;48.512;9.036;2023-10-09T04:32:55;11.40;97.40
55121;DHT22;41019;48.512;9.036;2023-10-09T04:35:29;11.40;97.40
55121;DHT22;41019;48.512;9.036;2023-10-09T04:37:55;11.40;97.30
55121;DHT22;41019;48.512;9.036;2023-10-09T04:40:32;11.40;97.40
55121;DHT22;41019;48.512;9.036;2023-10-09T04:43:17;11.30;97.40
55121;DHT22;41019;48.512;9.036;2023-10-09T04:45:49;11.30;97.40
55121;DHT22;41019;48.512;9.036;2023-10-09T04:48:37;11.30;97.60
55121;DHT22;41019;48.512;9.036;2023-10-09T04:51:11;11.30;97.40
55121;DHT22;41019;48.512;9.036;2023-10-09T04:54:01;11.30;97.50
55121;DHT22;41019;48.512;9.036;2023-10-09T04:56:40;11.30;97.40
55121;DHT22;41019;48.512;9.036;2023-10-09T04:59:26;11.30;97.30
55121;DHT22;41019;48.512;9.036;2023-10-09T05:01:52;11.30;97.30
55121;DHT22;41019;48.512;9.036;2023-10-09T05:04:25;11.30;97.50
55121;DHT22;41019;48.512;9.036;2023-10-09T05:07:06;11.30;97.40
55121;DHT22;41019;48.512;9.036;2023-10-09T05:09:51;11.20;97.40
55121;DHT22;41019;48.512;9.036;2023-10-09T05:12:35;11.20;97.50
55121;DHT22;41019;48.512;9.036;2023-10-09T05:15:07;11.30;97.60
55121;DHT22;41019;48.512;9.036;2023-10-09T05:17:37;11.20;97.60
55121;DHT22;41019;48.512;9.036;2023-10-09T05:20:07;11.20;97.80
55121;DHT22;41019;48.512;9.036;2023-10-09T05:22:56;11.30;97.90
55121;DHT22;41019;48.512;9.036;2023-10-09T05:25:48;11.30;97.80
55121;DHT22;41019;48.512;9.036;2023-10-09T05:28:21;11.30;97.90
55121;DHT22;41019;48.512;9.036;2023-10-09T05:30:52;11.30;98.00
55121;DHT22;41019;48.512;9.036;2023-10-09T05:33:38;11.30;98.00
55121;DHT22;41019;48.512;9.036;2023-10-09T05:36:06;11.30;98.10
55121;DHT22;41019;48.512;9.036;2023-10-09T05:38:57;11.30;98.10
55121;DHT22;41019;48.512;9.036;2023-10-09T05:41:45;11.40;98.20
55121;DHT22;41019;48.512;9.036;2023-10-09T05:44:33;11.40;98.30
55121;DHT22;41019;48.512;9.036;2023-10-09T05:47:19;11.40;98.30
55121;DHT22;41019;48.512;9.036;2023-10-09T05:49:55;11.40;98.10
55121;DHT22;41019;48.512;9.036;2023-10-09T05:52:41;11.40;98.20
55121;DHT22;41019;48.512;9.036;2023-10-09T05:55:07;11.40;98.30
55121;DHT22;41019;48.512;9.036;2023-10-09T05:57:47;11.50;98.30
55121;DHT22;41019;48.512;9.036;2023-10-09T06:00:32;11.50;98.20
55121;DHT22;41019;48.512;9.036;2023-10-09T06:03:16;11.50;98.10
55121;DHT22;41019;48.512;9.036;2023-10-09T06:05:52;11.50;98.10
55121;DHT22;41019;48.512;9.036;2023-10-09T06:08:23;11.50;98.20
55121;DHT22;41019;48.512;9.036;2023-10-09T06:11:24;11.50;98.10
55121;DHT22;41019;48.512;9.036;2023-10-09T06:14:00;11.50;97.90
55121;DHT22;41019;48.512;9.036;2023-10-09T06:19:08;11.60;97.60
55121;DHT22;41019;48.512;9.036;2023-10-09T06:21:39;11.70;97.70
55121;DHT22;41019;48.512;9.036;2023-10-09T06:24:23;11.70;97.90
55121;DHT22;41019;48.512;9.036;2023-10-09T06:26:50;11.80;97.90
55121;DHT22;41019;48.512;9.036;2023-10-09T06:29:33;11.80;97.90
55121;DHT22;41019;48.512;9.036;2023-10-09T06:32:05;11.90;97.80
55121;DHT22;41019;48.512;9.036;2023-10-09T06:35:01;11.90;97.50
55121;DHT22;41019;48.512;9.036;2023-10-09T06:37:48;12.00;97.60
55121;DHT22;41019;48.512;9.036;2023-10-09T06:40:37;12.10;97.50
55121;DHT22;41019;48.512;9.036;2023-10-09T06:43:23;12.20;97.20
55121;DHT22;41019;48.512;9.036;2023-10-09T06:45:50;12.30;97.10
55121;DHT22;41019;48.512;9.036;2023-10-09T06:48:35;12.30;97.20
55121;DHT22;41019;48.512;9.036;2023-10-09T06:51:13;12.40;96.80
55121;DHT22;41019;48.512;9.036;2023-10-09T06:53:52;12.50;96.90
55121;DHT22;41019;48.512;9.036;2023-10-09T06:56:27;12.50;96.80
55121;DHT22;41019;48.512;9.036;2023-10-09T06:58:58;12.60;97.00
55121;DHT22;41019;48.512;9.036;2023-10-09T07:01:27;12.70;96.90
55121;DHT22;41019;48.512;9.036;2023-10-09T07:03:59;12.70;96.60
55121;DHT22;41019;48.512;9.036;2023-10-09T07:06:57;12.80;96.70
55121;DHT22;41019;48.512;9.036;2023-10-09T07:09:25;12.90;96.60
55121;DHT22;41019;48.512;9.036;2023-10-09T07:12:09;12.90;96.50
55121;DHT22;41019;48.512;9.036;2023-10-09T07:14:52;13.00;96.10
55121;DHT22;41019;48.512;9.036;2023-10-09T07:17:21;13.10;96.20
55121;DHT22;41019;48.512;9.036;2023-10-09T07:20:11;13.10;96.30
55121;DHT22;41019;48.512;9.036;2023-10-09T07:22:42;13.20;96.10
55121;DHT22;41019;48.512;9.036;2023-10-09T07:25:34;13.20;95.90
55121;DHT22;41019;48.512;9.036;2023-10-09T07:28:10;13.30;96.00
55121;DHT22;41019;48.512;9.036;2023-10-09T07:31:03;13.30;95.60
55121;DHT22;41019;48.512;9.036;2023-10-09T07:33:29;13.40;95.50
55121;DHT22;41019;48.512;9.036;2023-10-09T07:36:17;13.50;95.70
55121;DHT22;41019;48.512;9.036;2023-10-09T07:38:56;13.60;95.30
55121;DHT22;41019;48.512;9.036;2023-10-09T07:41:21;13.60;95.00
55121;DHT22;41019;48.512;9.036;2023-10-09T07:43:47;13.80;94.80
55121;DHT22;41019;48.512;9.036;2023-10-09T07:46:18;13.90;94.70
55121;DHT22;41019;48.512;9.036;2023-10-09T07:48:59;14.00;94.70
55121;DHT22;41019;48.512;9.036;2023-10-09T07:51:37;14.10;95.00
55121;DHT22;41019;48.512;9.036;2023-10-09T07:54:04;14.20;94.50
55121;DHT22;41019;48.512;9.036;2023-10-09T07:56:37;14.30;94.40
55121;DHT22;41019;48.512;9.036;2023-10-09T07:59:11;14.40;94.50
55121;DHT22;41019;48.512;9.036;2023-10-09T08:01:41;14.50;94.40
55121;DHT22;41019;48.512;9.036;2023-10-09T08:04:24;14.60;93.90
55121;DHT22;41019;48.512;9.036;2023-10-09T08:07:04;14.60;93.80
55121;DHT22;41019;48.512;9.036;2023-10-09T08:09:33;14.70;93.40
55121;DHT22;41019;48.512;9.036;2023-10-09T08:12:27;14.80;93.60
55121;DHT22;41019;48.512;9.036;2023-10-09T08:15:26;14.90;93.50
55121;DHT22;41019;48.512;9.036;2023-10-09T08:18:16;15.00;93.80
55121;DHT22;41019;48.512;9.036;2023-10-09T08:20:54;15.20;93.80
55121;DHT22;41019;48.512;9.036;2023-10-09T08:23:23;15.30;93.00
55121;DHT22;41019;48.512;9.036;2023-10-09T08:26:04;15.40;93.10
55121;DHT22;41019;48.512;9.036;2023-10-09T08:28:42;15.50;93.00
55121;DHT22;41019;48.512;9.036;2023-10-09T08:31:12;15.60;92.70
55121;DHT22;41019;48.512;9.036;2023-10-09T08:33:59;15.70;92.60
55121;DHT22;41019;48.512;9.036;2023-10-09T08:36:25;15.80;91.90
55121;DHT22;41019;48.512;9.036;2023-10-09T08:38:57;15.90;92.00
55121;DHT22;41019;48.512;9.036;2023-10-09T08:41:24;16.10;91.90
55121;DHT22;41019;48.512;9.036;2023-10-09T08:43:57;16.20;91.50
55121;DHT22;41019;48.512;9.036;2023-10-09T08:46:30;16.40;91.00
55121;DHT22;41019;48.512;9.036;2023-10-09T08:48:58;16.50;90.70
55121;DHT22;41019;48.512;9.036;2023-10-09T08:51:26;16.70;90.70
55121;DHT22;41019;48.512;9.036;2023-10-09T08:53:53;16.80;90.70
55121;DHT22;41019;48.512;9.036;2023-10-09T08:56:20;16.90;91.00
55121;DHT22;41019;48.512;9.036;2023-10-09T08:58:59;17.00;90.50
55121;DHT22;41019;48.512;9.036;2023-10-09T09:01:25;17.10;90.10
55121;DHT22;41019;48.512;9.036;2023-10-09T09:03:53;17.20;89.40
55121;DHT22;41019;48.512;9.036;2023-10-09T09:06:22;17.20;88.30
55121;DHT22;41019;48.512;9.036;2023-10-09T09:08:50;17.40;89.20
55121;DHT22;41019;48.512;9.036;2023-10-09T09:11:21;17.50;89.40
55121;DHT22;41019;48.512;9.036;2023-10-09T09:16:23;17.60;88.50
55121;DHT22;41019;48.512;9.036;2023-10-09T09:18:56;17.70;88.10
55121;DHT22;41019;48.512;9.036;2023-10-09T09:21:52;17.90;87.50
55121;DHT22;41019;48.512;9.036;2023-10-09T09:24:25;18.00;87.10
55121;DHT22;41019;48.512;9.036;2023-10-09T09:26:52;18.10;87.70
55121;DHT22;41019;48.512;9.036;2023-10-09T09:29:42;18.30;88.00
55121;DHT22;41019;48.512;9.036;2023-10-09T09:32:11;18.30;86.80
55121;DHT22;41019;48.512;9.036;2023-10-09T09:34:52;18.50;86.20
55121;DHT22;41019;48.512;9.036;2023-10-09T09:37:28;18.60;85.60
55121;DHT22;41019;48.512;9.036;2023-10-09T09:39:59;18.70;85.30
55121;DHT22;41019;48.512;9.036;2023-10-09T09:42:28;18.90;84.10
55121;DHT22;41019;48.512;9.036;2023-10-09T09:45:00;19.00;83.90
55121;DHT22;41019;48.512;9.036;2023-10-09T09:47:26;19.20;83.30
55121;DHT22;41019;48.512;9.036;2023-10-09T09:49:54;19.30;82.50
55121;DHT22;41019;48.512;9.036;2023-10-09T09:52:41;19.40;81.90
55121;DHT22;41019;48.512;9.036;2023-10-09T09:55:11;19.60;81.40
55121;DHT22;41019;48.512;9.036;2023-10-09T09:57:49;19.80;81.80
55121;DHT22;41019;48.512;9.036;2023-10-09T10:00:24;19.90;81.50
55121;DHT22;41019;48.512;9.036;2023-10-09T10:03:16;20.10;81.60
55121;DHT22;41019;48.512;9.036;2023-10-09T10:05:46;20.30;80.50
55121;DHT22;41019;48.512;9.036;2023-10-09T10:08:17;20.40;80.90
55121;DHT22;41019;48.512;9.036;2023-10-09T10:10:49;20.60;80.00
55121;DHT22;41019;48.512;9.036;2023-10-09T10:16:12;21.10;78.50
55121;DHT22;41019;48.512;9.036;2023-10-09T10:19:06;21.30;78.10
55121;DHT22;41019;48.512;9.036;2023-10-09T10:21:44;21.50;77.60
55121;DHT22;41019;48.512;9.036;2023-10-09T10:27:19;22.00;76.00
55121;DHT22;41019;48.512;9.036;2023-10-09T10:30:26;22.30;76.90
55121;DHT22;41019;48.512;9.036;2023-10-09T10:35:51;22.80;75.50
55121;DHT22;41019;48.512;9.036;2023-10-09T10:38:33;23.00;74.30
55121;DHT22;41019;48.512;9.036;2023-10-09T10:41:17;23.20;72.00
55121;DHT22;41019;48.512;9.036;2023-10-09T10:43:47;23.50;69.90
55121;DHT22;41019;48.512;9.036;2023-10-09T10:46:16;23.60;67.50
55121;DHT22;41019;48.512;9.036;2023-10-09T10:49:05;23.80;68.00
55121;DHT22;41019;48.512;9.036;2023-10-09T10:51:41;24.00;67.20
55121;DHT22;41019;48.512;9.036;2023-10-09T10:54:24;24.20;65.90
55121;DHT22;41019;48.512;9.036;2023-10-09T10:56:59;24.30;65.80
55121;DHT22;41019;48.512;9.036;2023-10-09T10:59:39;24.50;64.70
55121;DHT22;41019;48.512;9.036;2023-10-09T11:02:11;24.50;64.60
55121;DHT22;41019;48.512;9.036;2023-10-09T11:04:38;24.60;65.10
55121;DHT22;41019;48.512;9.036;2023-10-09T11:07:06;24.70;63.60
55121;DHT22;41019;48.512;9.036;2023-10-09T11:09:51;24.80;63.20
55121;DHT22;41019;48.512;9.036;2023-10-09T11:12:45;24.90;62.90
55121;DHT22;41019;48.512;9.036;2023-10-09T11:15:33;24.90;61.90
55121;DHT22;41019;48.512;9.036;2023-10-09T11:18:15;25.00;60.30
55121;DHT22;41019;48.512;9.036;2023-10-09T11:20:55;25.00;58.90
55121;DHT22;41019;48.512;9.036;2023-10-09T11:23:31;25.00;59.90
55121;DHT22;41019;48.512;9.036;2023-10-09T11:26:03;25.10;59.90
55121;DHT22;41019;48.512;9.036;2023-10-09T11:29:26;25.10;58.80
55121;DHT22;41019;48.512;9.036;2023-10-09T11:32:18;25.20;59.00
55121;DHT22;41019;48.512;9.036;2023-10-09T11:34:49;25.20;57.80
55121;DHT22;41019;48.512;9.036;2023-10-09T11:37:23;25.30;58.60
55121;DHT22;41019;48.512;9.036;2023-10-09T11:39:59;25.40;57.60
55121;DHT22;41019;48.512;9.036;2023-10-09T11:42:29;25.40;57.10
55121;DHT22;41019;48.512;9.036;2023-10-09T11:45:03;25.40;57.40
55121;DHT22;41019;48.512;9.036;2023-10-09T11:47:49;25.50;56.90
55121;DHT22;41019;48.512;9.036;2023-10-09T11:50:47;25.50;58.00
55121;DHT22;41019;48.512;9.036;2023-10-09T11:53:43;25.60;57.30
55121;DHT22;41019;48.512;9.036;2023-10-09T11:56:10;25.60;56.80
55121;DHT22;41019;48.512;9.036;2023-10-09T11:58:40;25.50;57.10
55121;DHT22;41019;48.512;9.036;2023-10-09T12:01:13;25.40;57.10
55121;DHT22;41019;48.512;9.036;2023-10-09T12:03:43;25.40;57.30
55121;DHT22;41019;48.512;9.036;2023-10-09T12:06:16;25.30;56.40
55121;DHT22;41019;48.512;9.036;2023-10-09T12:08:45;25.30;57.70
55121;DHT22;41019;48.512;9.036;2023-10-09T12:11:18;25.30;58.10
55121;DHT22;41019;48.512;9.036;2023-10-09T12:13:55;25.20;58.00
55121;DHT22;41019;48.512;9.036;2023-10-09T12:16:26;25.20;57.60
55121;DHT22;41019;48.512;9.036;2023-10-09T12:18:57;25.20;56.90
55121;DHT22;41019;48.512;9.036;2023-10-09T12:21:23;25.20;57.00
55121;DHT22;41019;48.512;9.036;2023-10-09T12:23:49;25.10;57.00
55121;DHT22;41019;48.512;9.036;2023-10-09T12:26:15;25.00;57.00
55121;DHT22;41019;48.512;9.036;2023-10-09T12:28:41;24.90;58.20
55121;DHT22;41019;48.512;9.036;2023-10-09T12:31:15;24.80;57.50
55121;DHT22;41019;48.512;9.036;2023-10-09T12:33:42;24.80;59.10
55121;DHT22;41019;48.512;9.036;2023-10-09T12:36:14;24.70;59.40
55121;DHT22;41019;48.512;9.036;2023-10-09T12:38:49;24.80;59.10
55121;DHT22;41019;48.512;9.036;2023-10-09T12:41:20;24.80;60.30
55121;DHT22;41019;48.512;9.036;2023-10-09T12:43:57;24.90;58.90
55121;DHT22;41019;48.512;9.036;2023-10-09T12:46:27;25.00;58.40
55121;DHT22;41019;48.512;9.036;2023-10-09T12:48:53;25.00;59.30
55121;DHT22;41019;48.512;9.036;2023-10-09T12:51:23;25.10;58.80
55121;DHT22;41019;48.512;9.036;2023-10-09T12:53:56;25.20;57.60
55121;DHT22;41019;48.512;9.036;2023-10-09T12:56:27;25.30;57.60
55121;DHT22;41019;48.512;9.036;2023-10-09T12:59:03;25.30;58.10
55121;DHT22;41019;48.512;9.036;2023-10-09T13:01:41;25.50;57.10
55121;DHT22;41019;48.512;9.036;2023-10-09T13:04:12;25.60;56.90
55121;DHT22;41019;48.512;9.036;2023-10-09T13:06:39;25.70;56.60
55121;DHT22;41019;48.512;9.036;2023-10-09T13:09:14;25.90;55.40
55121;DHT22;41019;48.512;9.036;2023-10-09T13:11:40;26.00;55.80
55121;DHT22;41019;48.512;9.036;2023-10-09T13:14:07;26.20;55.90
55121;DHT22;41019;48.512;9.036;2023-10-09T13:16:48;26.30;55.40
55121;DHT22;41019;48.512;9.036;2023-10-09T13:19:19;26.40;55.60
55121;DHT22;41019;48.512;9.036;2023-10-09T13:21:45;26.40;55.50
55121;DHT22;41019;48.512;9.036;2023-10-09T13:24:11;26.50;54.50
55121;DHT22;41019;48.512;9.036;2023-10-09T13:26:42;26.60;54.70
55121;DHT22;41019;48.512;9.036;2023-10-09T13:29:11;26.70;54.20
55121;DHT22;41019;48.512;9.036;2023-10-09T13:31:38;26.70;53.80
55121;DHT22;41019;48.512;9.036;2023-10-09T13:34:12;26.60;53.40
55121;DHT22;41019;48.512;9.036;2023-10-09T13:36:41;26.60;54.10
55121;DHT22;41019;48.512;9.036;2023-10-09T13:39:16;26.60;53.50
55121;DHT22;41019;48.512;9.036;2023-10-09T13:41:58;26.70;53.40
55121;DHT22;41019;48.512;9.036;2023-10-09T13:46:53;26.70;54.00
55121;DHT22;41019;48.512;9.036;2023-10-09T13:49:19;26.70;53.20
55121;DHT22;41019;48.512;9.036;2023-10-09T13:51:49;26.70;53.40
55121;DHT22;41019;48.512;9.036;2023-10-09T13:54:17;26.70;52.80
55121;DHT22;41019;48.512;9.036;2023-10-09T13:57:01;26.70;53.00
55121;DHT22;41019;48.512;9.036;2023-10-09T13:59:30;26.60;52.00
55121;DHT22;41019;48.512;9.036;2023-10-09T14:01:56;26.60;52.60
55121;DHT22;41019;48.512;9.036;2023-10-09T14:04:25;26.50;51.60
55121;DHT22;41019;48.512;9.036;2023-10-09T14:06:52;26.50;51.40
55121;DHT22;41019;48.512;9.036;2023-10-09T14:09:26;26.40;51.70
55121;DHT22;41019;48.512;9.036;2023-10-09T14:12:05;26.30;50.00
55121;DHT22;41019;48.512;9.036;2023-10-09T14:14:44;26.20;50.30
55121;DHT22;41019;48.512;9.036;2023-10-09T14:17:17;26.20;49.10
55121;DHT22;41019;48.512;9.036;2023-10-09T14:19:49;26.00;52.60
55121;DHT22;41019;48.512;9.036;2023-10-09T14:22:23;25.90;51.40
55121;DHT22;41019;48.512;9.036;2023-10-09T14:24:55;25.80;51.80
55121;DHT22;41019;48.512;9.036;2023-10-09T14:27:23;25.80;54.50
55121;DHT22;41019;48.512;9.036;2023-10-09T14:29:54;25.60;53.90
55121;DHT22;41019;48.512;9.036;2023-10-09T14:32:25;25.60;54.50
55121;DHT22;41019;48.512;9.036;2023-10-09T14:35:09;25.30;55.40
55121;DHT22;41019;48.512;9.036;2023-10-09T14:37:41;25.30;53.40
55121;DHT22;41019;48.512;9.036;2023-10-09T14:40:07;25.20;53.40
55121;DHT22;41019;48.512;9.036;2023-10-09T14:42:42;25.10;54.50
55121;DHT22;41019;48.512;9.036;2023-10-09T14:45:11;25.00;53.60
55121;DHT22;41019;48.512;9.036;2023-10-09T14:47:42;24.90;50.60
55121;DHT22;41019;48.512;9.036;2023-10-09T14:50:07;24.80;55.10
55121;DHT22;41019;48.512;9.036;2023-10-09T14:52:34;24.80;53.30
55121;DHT22;41019;48.512;9.036;2023-10-09T14:55:05;24.80;53.10
55121;DHT22;41019;48.512;9.036;2023-10-09T14:57:31;24.80;50.60
55121;DHT22;41019;48.512;9.036;2023-10-09T15:00:00;24.80;51.20
55121;DHT22;41019;48.512;9.036;2023-10-09T15:02:26;24.80;53.00
55121;DHT22;41019;48.512;9.036;2023-10-09T15:04:52;24.90;53.60
55121;DHT22;41019;48.512;9.036;2023-10-09T15:07:18;24.90;53.10
55121;DHT22;41019;48.512;9.036;2023-10-09T15:09:46;24.90;52.60
55121;DHT22;41019;48.512;9.036;2023-10-09T15:12:12;24.90;52.90
55121;DHT22;41019;48.512;9.036;2023-10-09T15:14:38;24.90;53.20
55121;DHT22;41019;48.512;9.036;2023-10-09T15:17:04;25.00;51.70
55121;DHT22;41019;48.512;9.036;2023-10-09T15:19:32;25.00;51.60
55121;DHT22;41019;48.512;9.036;2023-10-09T15:21:59;25.00;51.30
55121;DHT22;41019;48.512;9.036;2023-10-09T15:24:26;25.10;51.90
55121;DHT22;41019;48.512;9.036;2023-10-09T15:26:55;25.00;52.40
55121;DHT22;41019;48.512;9.036;2023-10-09T15:29:25;25.00;52.00
55121;DHT22;41019;48.512;9.036;2023-10-09T15:32:02;25.00;51.30
55121;DHT22;41019;48.512;9.036;2023-10-09T15:34:40;25.00;51.30
55121;DHT22;41019;48.512;9.036;2023-10-09T15:37:07;25.00;51.60
55121;DHT22;41019;48.512;9.036;2023-10-09T15:39:36;24.90;52.60
55121;DHT22;41019;48.512;9.036;2023-10-09T15:42:02;24.90;52.80
55121;DHT22;41019;48.512;9.036;2023-10-09T15:44:35;24.90;52.40
55121;DHT22;41019;48.512;9.036;2023-10-09T15:47:03;24.90;52.70
55121;DHT22;41019;48.512;9.036;2023-10-09T15:49:29;24.90;52.80
55121;DHT22;41019;48.512;9.036;2023-10-09T15:52:00;24.80;52.90
55121;DHT22;41019;48.512;9.036;2023-10-09T15:54:27;24.70;53.10
55121;DHT22;41019;48.512;9.036;2023-10-09T15:56:54;24.60;53.40
55121;DHT22;41019;48.512;9.036;2023-10-09T15:59:22;24.60;53.70
55121;DHT22;41019;48.512;9.036;2023-10-09T16:01:50;24.50;54.00
55121;DHT22;41019;48.512;9.036;2023-10-09T16:04:17;24.40;54.00
55121;DHT22;41019;48.512;9.036;2023-10-09T16:06:43;24.40;53.90
55121;DHT22;41019;48.512;9.036;2023-10-09T16:09:09;24.30;54.40
55121;DHT22;41019;48.512;9.036;2023-10-09T16:11:38;24.30;54.40
55121;DHT22;41019;48.512;9.036;2023-10-09T16:14:05;24.20;54.70
55121;DHT22;41019;48.512;9.036;2023-10-09T16:16:36;24.10;55.20
55121;DHT22;41019;48.512;9.036;2023-10-09T16:19:08;24.00;55.30
55121;DHT22;41019;48.512;9.036;2023-10-09T16:21:38;23.90;56.30
55121;DHT22;41019;48.512;9.036;2023-10-09T16:24:05;23.80;57.40
55121;DHT22;41019;48.512;9.036;2023-10-09T16:26:32;23.70;56.10
55121;DHT22;41019;48.512;9.036;2023-10-09T16:29:09;23.60;56.40
55121;DHT22;41019;48.512;9.036;2023-10-09T16:31:35;23.60;57.30